createdAt,value
2019-05-20T00:01:01.252Z,6.00
2019-05-20T00:03:31.922Z,4.90
2019-05-20T00:06:02.390Z,3.90
2019-05-20T00:08:32.751Z,5.40
2019-05-20T00:11:03.056Z,4.42
2019-05-20T00:13:33.318Z,4.85
2019-05-20T00:16:03.847Z,4.62
2019-05-20T00:18:34.127Z,5.20
2019-05-20T00:21:04.421Z,5.90
2019-05-20T00:23:34.696Z,5.40
2019-05-20T00:26:04.989Z,5.37
2019-05-20T00:28:35.262Z,4.42
2019-05-20T00:31:05.550Z,6.08
2019-05-20T00:33:36.117Z,5.15
2019-05-20T00:36:06.404Z,4.30
2019-05-20T00:38:36.687Z,4.95
2019-05-20T00:41:08.222Z,4.50
2019-05-20T00:43:38.502Z,4.42
2019-05-20T00:46:08.851Z,5.05
2019-05-20T00:48:39.138Z,6.63
2019-05-20T00:51:09.416Z,4.92
2019-05-20T00:53:39.701Z,6.08
2019-05-20T00:56:09.975Z,6.58
2019-05-20T00:58:40.255Z,5.37
2019-05-20T01:01:11.295Z,6.37
2019-05-20T01:03:41.709Z,5.15
2019-05-20T01:06:11.993Z,4.70
2019-05-20T01:08:42.294Z,4.35
2019-05-20T01:11:12.566Z,5.37
2019-05-20T01:13:42.893Z,6.15
2019-05-20T01:16:13.737Z,5.16
2019-05-20T01:18:44.032Z,6.05
2019-05-20T01:21:14.306Z,5.17
2019-05-20T01:23:45.113Z,4.80
2019-05-20T01:26:15.702Z,5.55
2019-05-20T01:28:45.982Z,4.80
2019-05-20T01:31:16.270Z,6.37
2019-05-20T01:33:46.553Z,5.42
2019-05-20T01:36:16.834Z,4.40
2019-05-20T01:38:47.427Z,4.40
2019-05-20T01:41:17.705Z,5.50
2019-05-20T01:43:48.279Z,5.65
2019-05-20T01:46:18.564Z,4.80
2019-05-20T01:48:48.838Z,3.95
2019-05-20T01:51:19.468Z,6.05
2019-05-20T01:53:49.988Z,4.70
2019-05-20T01:56:20.521Z,5.60
2019-05-20T01:58:50.794Z,5.24
2019-05-20T02:01:21.077Z,5.42
2019-05-20T02:03:51.364Z,5.40
2019-05-20T02:06:22.058Z,4.70
2019-05-20T02:08:52.342Z,4.92
2019-05-20T02:11:22.620Z,4.12
2019-05-20T02:13:54.644Z,4.03
2019-05-20T02:16:29.105Z,4.23
2019-05-20T02:21:28.860Z,4.65
2019-05-20T02:23:59.096Z,4.60
2019-05-20T02:26:29.369Z,5.10
2019-05-20T02:28:59.654Z,3.58
2019-05-20T02:31:29.937Z,4.50
2019-05-20T02:34:00.227Z,3.90
2019-05-20T02:36:30.513Z,4.10
2019-05-20T02:39:00.785Z,5.10
2019-05-20T02:41:31.074Z,4.03
2019-05-20T02:44:01.351Z,5.47
2019-05-20T02:46:31.637Z,4.55
2019-05-20T02:49:01.936Z,4.30
2019-05-20T02:51:32.211Z,3.83
2019-05-20T02:54:03.705Z,4.15
2019-05-20T02:56:33.957Z,4.33
2019-05-20T02:59:04.389Z,4.90
2019-05-20T03:01:34.656Z,4.42
2019-05-20T03:04:12.011Z,3.85
2019-05-20T03:06:37.197Z,3.63
2019-05-20T03:09:11.705Z,3.98
2019-05-20T03:11:39.887Z,4.50
2019-05-20T03:14:10.171Z,3.45
2019-05-20T03:16:40.446Z,4.03
2019-05-20T03:19:10.723Z,3.73
2019-05-20T03:21:41.008Z,3.83
2019-05-20T03:24:11.290Z,4.25
2019-05-20T03:26:41.568Z,3.72
2019-05-20T03:29:12.461Z,4.53
2019-05-20T03:31:42.744Z,4.60
2019-05-20T03:34:41.843Z,5.42
2019-05-20T03:36:45.023Z,4.90
2019-05-20T03:39:15.302Z,3.90
2019-05-20T03:41:45.587Z,5.03
2019-05-20T03:44:16.255Z,3.57
2019-05-20T03:46:46.532Z,3.35
2019-05-20T03:49:16.829Z,4.85
2019-05-20T03:51:47.425Z,4.72
2019-05-20T03:54:17.708Z,5.20
2019-05-20T03:56:47.979Z,5.45
2019-05-20T03:59:18.316Z,5.40
2019-05-20T04:01:49.122Z,5.75
2019-05-20T04:04:19.468Z,5.97
2019-05-20T04:06:50.051Z,5.55
2019-05-20T04:09:20.332Z,5.35
2019-05-20T04:11:50.610Z,6.27
2019-05-20T04:14:20.891Z,7.45
2019-05-20T04:16:52.251Z,6.60
2019-05-20T04:19:22.523Z,5.92
2019-05-20T04:21:52.803Z,6.65
2019-05-20T04:24:23.081Z,5.35
2019-05-20T04:27:01.008Z,7.60
2019-05-20T04:29:31.653Z,5.64
2019-05-20T04:32:01.890Z,7.03
2019-05-20T04:34:32.756Z,6.60
2019-05-20T04:37:04.028Z,7.45
2019-05-20T04:39:35.437Z,7.08
2019-05-20T04:42:06.848Z,6.58
2019-05-20T04:44:37.468Z,6.83
2019-05-20T04:47:07.750Z,7.33
2019-05-20T04:49:38.027Z,7.97
2019-05-20T04:52:08.311Z,7.35
2019-05-20T04:54:38.581Z,7.65
2019-05-20T04:57:08.865Z,8.83
2019-05-20T04:59:39.220Z,9.87
2019-05-20T05:02:09.495Z,9.85
2019-05-20T05:04:39.779Z,10.00
2019-05-20T05:07:10.140Z,10.23
2019-05-20T05:09:40.427Z,10.68
2019-05-20T05:12:10.798Z,10.57
2019-05-20T05:14:41.336Z,10.94
2019-05-20T05:17:11.692Z,11.05
2019-05-20T05:19:42.052Z,11.83
2019-05-20T05:22:12.569Z,14.20
2019-05-20T05:24:42.854Z,13.30
2019-05-20T05:27:13.143Z,14.58
2019-05-20T05:29:43.424Z,16.50
2019-05-20T05:32:13.729Z,16.50
2019-05-20T05:34:44.010Z,16.50
2019-05-20T05:37:14.298Z,15.30
2019-05-20T05:39:44.586Z,14.77
2019-05-20T05:42:14.874Z,15.00
2019-05-20T05:44:45.454Z,15.18
2019-05-20T05:47:15.756Z,15.00
2019-05-20T05:49:46.046Z,12.23
2019-05-20T05:52:16.328Z,10.63
2019-05-20T05:54:46.616Z,11.05
2019-05-20T05:57:16.901Z,11.70
2019-05-20T05:59:47.189Z,12.47
2019-05-20T06:02:18.129Z,12.15
2019-05-20T06:04:49.543Z,10.05
2019-05-20T06:07:19.825Z,12.20
2019-05-20T06:09:50.117Z,12.03
2019-05-20T06:12:20.412Z,12.05
2019-05-20T06:14:50.869Z,12.20
2019-05-20T06:17:21.155Z,11.73
2019-05-20T06:19:51.434Z,10.40
2019-05-20T06:22:21.734Z,11.15
2019-05-20T06:24:52.041Z,13.05
2019-05-20T06:27:22.335Z,13.75
2019-05-20T06:29:52.921Z,12.80
2019-05-20T06:32:23.248Z,13.50
2019-05-20T06:34:53.816Z,13.05
2019-05-20T06:37:26.253Z,12.68
2019-05-20T06:39:56.605Z,12.27
2019-05-20T06:42:26.893Z,12.46
2019-05-20T06:44:57.538Z,14.45
2019-05-20T06:47:28.167Z,15.80
2019-05-20T06:49:59.245Z,14.95
2019-05-20T06:52:35.855Z,16.82
2019-05-20T06:55:01.528Z,17.07
2019-05-20T06:57:32.046Z,16.37
2019-05-20T07:00:02.472Z,15.03
2019-05-20T07:02:33.083Z,16.13
2019-05-20T07:05:04.616Z,15.72
2019-05-20T07:07:34.895Z,16.32
2019-05-20T07:10:07.807Z,15.75
2019-05-20T07:12:41.529Z,14.68
2019-05-20T07:15:10.646Z,14.65
2019-05-20T07:17:40.930Z,15.50
2019-05-20T07:20:11.615Z,16.02
2019-05-20T07:22:55.311Z,17.73
2019-05-20T07:25:14.135Z,17.20
2019-05-20T07:27:44.424Z,15.10
2019-05-20T07:30:15.961Z,18.95
2019-05-20T07:32:46.241Z,18.73
2019-05-20T07:35:29.814Z,15.48
2019-05-20T07:37:48.503Z,15.83
2019-05-20T07:40:28.988Z,19.15
2019-05-20T07:42:59.280Z,15.43
2019-05-20T07:45:34.043Z,16.62
2019-05-20T07:48:05.861Z,15.95
2019-05-20T07:50:39.689Z,16.90
2019-05-20T07:55:58.246Z,18.87
2019-05-20T07:58:33.853Z,18.57
2019-05-20T08:01:04.465Z,19.70
2019-05-20T08:03:38.447Z,18.27
2019-05-20T08:06:07.338Z,20.82
2019-05-20T08:08:37.994Z,19.85
2019-05-20T08:11:08.447Z,19.02
2019-05-20T08:13:38.734Z,20.72
2019-05-20T08:16:09.033Z,20.70
2019-05-20T08:18:39.315Z,21.25
2019-05-20T08:21:09.989Z,20.45
2019-05-20T08:23:40.266Z,20.47
2019-05-20T08:26:10.624Z,18.90
2019-05-20T08:28:40.978Z,21.23
2019-05-20T08:31:11.276Z,19.15
2019-05-20T08:33:41.554Z,19.42
2019-05-20T08:36:11.864Z,20.10
2019-05-20T08:38:42.474Z,17.12
2019-05-20T08:41:12.788Z,18.02
2019-05-20T08:43:43.314Z,18.36
2019-05-20T08:46:13.613Z,19.10
2019-05-20T08:48:43.931Z,18.98
2019-05-20T08:51:14.946Z,17.15
2019-05-20T08:53:45.235Z,16.12
2019-05-20T08:56:15.528Z,16.33
2019-05-20T08:58:45.953Z,16.80
2019-05-20T09:01:16.274Z,13.95
2019-05-20T09:03:46.629Z,15.30
2019-05-20T09:06:20.597Z,15.83
2019-05-20T09:08:48.880Z,14.55
2019-05-20T09:11:19.180Z,14.95
2019-05-20T09:13:49.457Z,14.17
2019-05-20T09:16:19.746Z,14.05
2019-05-20T09:18:51.110Z,12.70
2019-05-20T09:21:21.610Z,14.13
2019-05-20T09:23:51.844Z,12.40
2019-05-20T09:26:22.139Z,13.75
2019-05-20T09:28:52.428Z,13.20
2019-05-20T09:31:23.422Z,12.80
2019-05-20T09:33:53.858Z,12.40
2019-05-20T09:36:26.043Z,11.15
2019-05-20T09:38:56.929Z,12.18
2019-05-20T09:41:27.180Z,12.07
2019-05-20T09:43:57.977Z,12.47
2019-05-20T09:46:28.490Z,11.08
2019-05-20T09:48:58.767Z,11.22
2019-05-20T09:51:29.059Z,11.10
2019-05-20T09:53:59.419Z,10.82
2019-05-20T09:56:29.992Z,11.30
2019-05-20T09:59:00.285Z,10.03
2019-05-20T10:01:30.594Z,10.98
2019-05-20T10:04:00.863Z,10.93
2019-05-20T10:06:31.158Z,9.30
2019-05-20T10:09:01.736Z,9.45
2019-05-20T10:11:32.018Z,10.50
2019-05-20T10:14:02.301Z,11.40
2019-05-20T10:16:32.594Z,10.72
2019-05-20T10:19:03.135Z,10.50
2019-05-20T10:21:33.853Z,10.38
2019-05-20T10:24:04.854Z,11.08
2019-05-20T10:26:36.374Z,10.80
2019-05-20T10:29:06.719Z,11.53
2019-05-20T10:31:37.326Z,10.30
2019-05-20T10:34:07.608Z,11.90
2019-05-20T10:36:37.898Z,11.90
2019-05-20T10:39:08.777Z,11.63
2019-05-20T10:41:39.212Z,12.58
2019-05-20T10:44:09.740Z,12.13
2019-05-20T10:46:40.018Z,11.55
2019-05-20T10:49:10.601Z,12.45
2019-05-20T10:51:40.945Z,12.35
2019-05-20T10:54:11.175Z,13.40
2019-05-20T10:56:41.775Z,14.58
2019-05-20T10:59:12.569Z,14.33
2019-05-20T11:01:43.032Z,14.78
2019-05-20T11:04:13.686Z,15.15
2019-05-20T11:06:43.970Z,15.18
2019-05-20T11:09:15.198Z,14.15
2019-05-20T11:11:45.476Z,16.57
2019-05-20T11:14:15.757Z,16.95
2019-05-20T11:16:46.048Z,17.57
2019-05-20T11:19:16.327Z,16.30
2019-05-20T11:21:46.963Z,18.52
2019-05-20T11:24:17.496Z,17.87
2019-05-20T11:26:47.790Z,18.75
2019-05-20T11:29:18.097Z,19.87
2019-05-20T11:31:48.435Z,18.87
2019-05-20T11:34:18.722Z,18.75
2019-05-20T11:36:49.084Z,20.77
2019-05-20T11:39:32.463Z,19.20
2019-05-20T11:41:53.940Z,22.52
2019-05-20T11:44:23.904Z,23.67
2019-05-20T11:46:54.196Z,22.87
2019-05-20T11:49:28.659Z,23.92
2019-05-20T11:51:56.498Z,25.77
2019-05-20T11:54:26.808Z,26.45
2019-05-20T11:56:57.112Z,25.05
2019-05-20T11:59:27.399Z,24.37
2019-05-20T12:01:57.682Z,25.95
2019-05-20T12:04:27.973Z,25.48
2019-05-20T12:06:58.265Z,28.07
2019-05-20T12:09:28.569Z,29.05
2019-05-20T12:11:59.143Z,30.32
2019-05-20T12:14:29.727Z,30.13
2019-05-20T12:17:00.037Z,30.65
2019-05-20T12:19:30.323Z,31.48
2019-05-20T12:22:00.625Z,29.60
2019-05-20T12:24:30.906Z,31.55
2019-05-20T12:27:01.229Z,30.93
2019-05-20T12:29:31.504Z,32.10
2019-05-20T12:32:03.661Z,30.78
2019-05-20T12:34:33.827Z,31.00
2019-05-20T12:37:04.131Z,31.33
2019-05-20T12:39:34.422Z,32.58
2019-05-20T12:42:04.765Z,33.63
2019-05-20T12:44:35.060Z,33.92
2019-05-20T12:47:05.345Z,33.65
2019-05-20T12:49:35.769Z,34.45
2019-05-20T12:52:06.252Z,34.70
2019-05-20T12:54:36.502Z,35.75
2019-05-20T12:57:06.798Z,34.00
2019-05-20T12:59:37.076Z,33.10
2019-05-20T13:02:07.540Z,34.05
2019-05-20T13:04:37.824Z,34.67
2019-05-20T13:07:08.106Z,33.08
2019-05-20T13:09:38.405Z,34.70
2019-05-20T13:12:08.684Z,35.48
2019-05-20T13:14:38.995Z,36.80
2019-05-20T13:17:09.305Z,34.53
2019-05-20T13:19:39.651Z,35.35
2019-05-20T13:22:10.939Z,35.40
2019-05-20T13:24:41.403Z,37.97
2019-05-20T13:27:12.026Z,37.98
2019-05-20T13:29:42.864Z,38.55
2019-05-20T13:32:13.242Z,38.42
2019-05-20T13:34:43.579Z,38.38
2019-05-20T13:37:13.864Z,39.73
2019-05-20T13:39:44.217Z,40.55
2019-05-20T13:42:14.504Z,41.18
2019-05-20T13:44:44.791Z,41.77
2019-05-20T13:47:15.073Z,43.78
2019-05-20T13:49:45.358Z,42.60
2019-05-20T13:52:15.966Z,43.38
2019-05-20T13:54:46.296Z,42.48
2019-05-20T13:57:16.566Z,45.37
2019-05-20T13:59:46.870Z,44.53
2019-05-20T14:02:17.462Z,45.90
2019-05-20T14:04:47.750Z,46.25
2019-05-20T14:07:18.032Z,47.33
2019-05-20T14:09:48.330Z,44.67
2019-05-20T14:12:18.613Z,45.15
2019-05-20T14:14:48.899Z,44.05
2019-05-20T14:17:19.193Z,44.60
2019-05-20T14:19:49.489Z,41.40
2019-05-20T14:22:19.771Z,44.65
2019-05-20T14:24:50.073Z,44.20
2019-05-20T14:27:20.350Z,43.75
2019-05-20T14:29:50.642Z,44.88
2019-05-20T14:32:20.974Z,45.60
2019-05-20T14:34:51.466Z,43.70
2019-05-20T14:37:21.754Z,42.45
2019-05-20T14:39:52.063Z,45.73
2019-05-20T14:42:25.442Z,42.27
2019-05-20T14:44:54.336Z,43.42
2019-05-20T14:47:24.740Z,43.13
2019-05-20T14:49:55.033Z,45.50
2019-05-20T14:52:25.323Z,46.03
2019-05-20T14:54:55.750Z,43.30
2019-05-20T14:57:26.044Z,45.70
2019-05-20T14:59:56.319Z,45.78
2019-05-20T15:02:30.706Z,46.20
2019-05-20T15:04:58.621Z,44.48
2019-05-20T15:07:30.955Z,44.95
2019-05-20T15:10:00.904Z,46.45
2019-05-20T15:12:31.230Z,46.25
2019-05-20T15:15:01.488Z,44.58
2019-05-20T15:17:31.795Z,45.55
2019-05-20T15:20:02.313Z,43.10
2019-05-20T15:22:32.596Z,44.03
2019-05-20T15:25:03.137Z,45.70
2019-05-20T15:27:33.425Z,45.10
2019-05-20T15:30:05.003Z,44.45
2019-05-20T15:32:35.288Z,43.00
2019-05-20T15:35:07.089Z,42.55
2019-05-20T15:37:37.391Z,43.65
2019-05-20T15:40:08.887Z,43.47
2019-05-20T15:42:39.170Z,41.42
2019-05-20T15:45:10.611Z,43.87
2019-05-20T15:47:41.045Z,42.58
2019-05-20T15:50:12.208Z,42.55
2019-05-20T15:52:42.774Z,43.98
2019-05-20T15:55:13.293Z,43.42
2019-05-20T15:57:43.588Z,43.25
2019-05-20T16:00:16.441Z,44.05
2019-05-20T16:02:46.731Z,41.95
2019-05-20T16:05:17.016Z,43.90
2019-05-20T16:07:47.308Z,40.88
2019-05-20T16:10:18.052Z,39.03
2019-05-20T16:12:48.336Z,36.42
2019-05-20T16:15:18.696Z,38.87
2019-05-20T16:17:48.992Z,39.05
2019-05-20T16:20:20.242Z,38.73
2019-05-20T16:22:50.521Z,37.28
2019-05-20T16:25:20.817Z,38.15
2019-05-20T16:27:51.999Z,37.08
2019-05-20T16:30:22.553Z,36.88
2019-05-20T16:32:53.067Z,40.92
2019-05-20T16:35:23.441Z,38.10
2019-05-20T16:37:53.724Z,35.68
2019-05-20T16:40:24.088Z,37.25
2019-05-20T16:42:54.377Z,38.13
2019-05-20T16:45:24.663Z,39.03
2019-05-20T16:47:55.897Z,35.52
2019-05-20T16:50:26.267Z,40.05
2019-05-20T16:52:56.544Z,39.73
2019-05-20T16:55:26.871Z,37.73
2019-05-20T16:57:57.153Z,33.08
2019-05-20T17:00:31.872Z,37.83
2019-05-20T17:02:59.670Z,38.17
2019-05-20T17:05:29.954Z,38.02
2019-05-20T17:08:02.929Z,32.60
2019-05-20T17:10:33.226Z,36.95
2019-05-20T17:13:03.525Z,33.83
2019-05-20T17:15:33.832Z,37.33
2019-05-20T17:18:04.594Z,34.35
2019-05-20T17:20:34.873Z,36.10
2019-05-20T17:23:05.164Z,35.45
2019-05-20T17:25:36.319Z,33.70
2019-05-20T17:28:08.446Z,35.95
2019-05-20T17:30:45.625Z,35.38
2019-05-20T17:33:11.255Z,35.00
2019-05-20T17:35:41.535Z,35.88
2019-05-20T17:38:11.833Z,36.45
2019-05-20T17:40:42.110Z,34.60
2019-05-20T17:43:12.469Z,34.55
2019-05-20T17:45:42.901Z,33.08
2019-05-20T17:48:13.513Z,33.90
2019-05-20T17:50:43.867Z,35.92
2019-05-20T17:53:14.157Z,35.53
2019-05-20T17:55:44.519Z,35.03
2019-05-20T17:58:14.817Z,34.92
2019-05-20T18:00:47.450Z,35.38
2019-05-20T18:03:17.454Z,36.95
2019-05-20T18:05:47.879Z,36.03
2019-05-20T18:08:19.342Z,36.73
2019-05-20T18:10:49.743Z,36.55
2019-05-20T18:13:20.031Z,34.20
2019-05-20T18:15:50.347Z,35.68
2019-05-20T18:18:20.618Z,35.78
2019-05-20T18:20:50.939Z,36.43
2019-05-20T18:23:21.218Z,35.95
2019-05-20T18:25:51.521Z,35.33
2019-05-20T18:28:22.078Z,36.80
2019-05-20T18:30:52.394Z,36.38
2019-05-20T18:33:22.710Z,35.55
2019-05-20T18:35:52.983Z,38.73
2019-05-20T18:38:23.267Z,40.40
2019-05-20T18:40:53.562Z,35.97
2019-05-20T18:43:23.961Z,39.05
2019-05-20T18:45:54.561Z,39.70
2019-05-20T18:48:25.083Z,37.53
2019-05-20T18:50:56.286Z,37.50
2019-05-20T18:53:26.576Z,39.55
2019-05-20T18:55:56.930Z,41.25
2019-05-20T18:58:27.503Z,41.08
2019-05-20T19:00:58.039Z,39.90
2019-05-20T19:03:28.977Z,42.40
2019-05-20T19:05:59.433Z,39.35
2019-05-20T19:08:30.091Z,39.78
2019-05-20T19:11:00.314Z,42.05
2019-05-20T19:13:30.607Z,42.48
2019-05-20T19:16:00.899Z,44.18
2019-05-20T19:18:31.245Z,42.10
2019-05-20T19:21:01.971Z,45.60
2019-05-20T19:23:32.325Z,44.80
2019-05-20T19:26:02.620Z,45.95
2019-05-20T19:28:32.921Z,48.00
2019-05-20T19:31:03.214Z,46.50
2019-05-20T19:33:33.507Z,46.90
2019-05-20T19:36:03.805Z,47.25
2019-05-20T19:38:35.042Z,49.70
2019-05-20T19:41:05.687Z,47.15
2019-05-20T19:43:36.217Z,51.60
2019-05-20T19:46:06.511Z,48.02
2019-05-20T19:48:36.860Z,49.60
2019-05-20T19:51:07.177Z,49.27
2019-05-20T19:53:37.457Z,51.58
2019-05-20T19:56:07.750Z,50.87
2019-05-20T19:58:38.045Z,51.25
2019-05-20T20:01:08.332Z,53.45
2019-05-20T20:03:38.914Z,50.10
2019-05-20T20:06:09.196Z,51.60
2019-05-20T20:08:39.502Z,48.10
2019-05-20T20:11:09.867Z,45.28
2019-05-20T20:13:40.217Z,44.42
2019-05-20T20:16:10.534Z,42.03
2019-05-20T20:18:40.831Z,40.55
2019-05-20T20:21:11.158Z,37.50
2019-05-20T20:23:41.452Z,35.68
2019-05-20T20:26:11.737Z,38.20
2019-05-20T20:28:42.063Z,37.53
2019-05-20T20:31:12.343Z,43.52
2019-05-20T20:33:42.697Z,43.33
2019-05-20T20:36:12.989Z,45.15
2019-05-20T20:38:43.293Z,46.00
2019-05-20T20:41:13.575Z,45.67
2019-05-20T20:43:43.867Z,42.55
2019-05-20T20:46:14.167Z,43.55
2019-05-20T20:48:44.469Z,41.35
2019-05-20T20:51:14.770Z,39.50
2019-05-20T20:53:45.133Z,39.10
2019-05-20T20:56:24.923Z,34.08
2019-05-20T20:58:47.869Z,30.85
2019-05-20T21:01:18.182Z,31.95
2019-05-20T21:03:48.475Z,31.55
2019-05-20T21:06:19.008Z,35.38
2019-05-20T21:08:49.294Z,35.50
2019-05-20T21:11:19.606Z,39.88
2019-05-20T21:13:49.950Z,42.13
2019-05-20T21:16:20.246Z,41.90
2019-05-20T21:18:50.544Z,41.65
2019-05-20T21:21:20.836Z,41.67
2019-05-20T21:23:51.176Z,40.35
2019-05-20T21:26:21.878Z,39.67
2019-05-20T21:28:52.185Z,39.13
2019-05-20T21:31:22.470Z,40.10
2019-05-20T21:33:53.058Z,41.38
2019-05-20T21:36:23.590Z,43.28
2019-05-20T21:38:53.882Z,44.05
2019-05-20T21:41:25.575Z,44.93
2019-05-20T21:43:57.156Z,47.95
2019-05-20T21:46:27.452Z,51.35
2019-05-20T21:48:57.778Z,47.88
2019-05-20T21:51:28.717Z,54.08
2019-05-20T21:53:59.134Z,55.90
2019-05-20T21:56:30.192Z,55.78
2019-05-20T21:59:01.494Z,57.40
2019-05-20T22:01:33.098Z,59.90
2019-05-20T22:04:03.417Z,60.00
2019-05-20T22:06:33.707Z,60.43
2019-05-20T22:09:05.601Z,59.25
2019-05-20T22:11:35.894Z,62.33
2019-05-20T22:14:06.541Z,61.23
2019-05-20T22:16:37.401Z,61.85
2019-05-20T22:19:08.020Z,60.58
2019-05-20T22:21:48.673Z,60.55
2019-05-20T22:24:18.955Z,56.45
2019-05-20T22:26:49.319Z,53.73
2019-05-20T22:29:19.597Z,54.48
2019-05-20T22:31:49.892Z,50.67
2019-05-20T22:34:20.176Z,49.75
2019-05-20T22:36:50.475Z,48.83
2019-05-20T22:39:20.754Z,48.28
2019-05-20T22:41:51.123Z,47.33
2019-05-20T22:44:21.424Z,46.68
2019-05-20T22:46:51.866Z,49.67
2019-05-20T22:49:22.161Z,50.50
2019-05-20T22:51:52.441Z,51.08
2019-05-20T22:54:22.726Z,51.10
2019-05-20T22:56:53.037Z,49.70
2019-05-20T22:59:23.644Z,49.63
2019-05-20T23:01:53.938Z,51.02
2019-05-20T23:04:24.214Z,49.20
2019-05-20T23:06:54.980Z,49.40
2019-05-20T23:09:25.255Z,49.23
2019-05-20T23:11:55.548Z,49.95
2019-05-20T23:14:27.010Z,49.27
2019-05-20T23:16:57.291Z,49.35
2019-05-20T23:19:27.589Z,50.25
2019-05-20T23:21:57.875Z,51.13
2019-05-20T23:24:28.178Z,51.00
2019-05-20T23:26:58.461Z,52.23
2019-05-20T23:29:29.028Z,53.28
2019-05-20T23:31:59.308Z,52.15
2019-05-20T23:34:29.618Z,53.37
2019-05-20T23:36:59.903Z,50.63
2019-05-20T23:39:30.193Z,53.68
2019-05-20T23:42:00.908Z,50.60
2019-05-20T23:44:31.210Z,50.12
2019-05-20T23:47:01.800Z,49.77
2019-05-20T23:49:32.065Z,49.85
2019-05-20T23:52:02.349Z,44.13
2019-05-20T23:54:32.643Z,46.92
2019-05-20T23:57:02.934Z,45.20
2019-05-20T23:59:33.213Z,43.65
